Terminal Aerodrome Forecast
Issued by NWS

Home | Current Version | Previous Version | Text Only | Print | Product List | Glossary On
Versions: 1 2 3 4 5 6 7 8 9 10 11 12 13 14 15 16 17 18 19 20 21 22 23 24 25 26 27 28 29 30 31 32 33 34 35 36 37 38 39 40
000
FTAK31 PANC 301250 AAA
TAFADL
TAF AMD
PADL 301250Z 3013/0112 11007KT P6SM OVC005
      TEMPO 3013/3017 P6SM SCT005 BKN012 OVC030
     FM301900 09014G21KT P6SM BKN045 WS020/17030KT
     FM010500 10022G29KT P6SM -RA BKN050 WS020/13058KT=

USA.gov is the U.S. government's official web portal to all federal, state and local government web resources and services.